Silver City, NM

8:01 AM MST on December 18, 2017 (GMT -0700)
Grant County

Weather History for KSVC - March, 2013

Change the Weather History Date:

Thursday, March 28, 2013

  Actual Average (KDMN) Record (KDMN)
Temperature  
Mean Temperature 56 °F -  
Max Temperature 71 °F 71 °F 87 °F (2015)
Min Temperature 41 °F 37 °F 22 °F (1955)
Degree Days  
Heating Degree Days 9    
Growing Degree Days 6 (Base 50)    
Moisture  
Dew Point 13 °F    
Average Humidity 20    
Maximum Humidity 31    
Minimum Humidity 9    
Precipitation  
Precipitation 0.00 in - - ()
Sea Level Pressure  
Sea Level Pressure 30.16 in    
Wind  
Wind Speed 10 mph (NW)    
Max Wind Speed 14 mph    
Max Gust Speed 23 mph    
Visibility 10 miles    
Events      
Averages and records for this station are not official NWS values.
T = Trace of Precipitation, MM = Missing Value Source: NWS Daily Summary

Daily Weather History Graph

Daily Weather History Graph

Search for Another Location

Airport or City:

Trip Planner

Search our weather history database for the weather conditions in past years. The results will help you decide how hot, cold, wet, or windy it might be!

Date:

Astronomy

Mar. 28, 2013 Rise Set
Actual Time 7:05 AM MDT 7:30 PM MDT
Civil Twilight 6:40 AM MDT 7:54 PM MDT
Nautical Twilight 6:11 AM MDT 8:23 PM MDT
Astronomical Twilight 5:42 AM MDT 8:53 PM MDT
Moon 9:16 PM MDT (3/28) 7:42 AM MDT (3/28)
Length of Visible Light 13h 13m
Length of Day
12h 24m
Full, 98% of the Moon is Illuminated
Mar 28
Full
Apr 2
Last Quarter
Apr 10
New
Apr 18
First Quarter
Apr 25
Full

Hourly Weather History & Observations

Time (MDT) Temp. Windchill Dew Point Humidity Pressure Visibility Wind Dir Wind Speed Gust Speed Precip Events Conditions
12:15 AM 44.6 °F 39.2 °F 10.4 °F 25% 30.13 in 10.0 mi North 10.4 mph - N/A   Partly Cloudy
12:35 AM 44.6 °F 39.7 °F 10.4 °F 25% 30.14 in 10.0 mi North 9.2 mph - N/A   Clear
12:55 AM 44.6 °F 39.7 °F 10.4 °F 25% 30.14 in 10.0 mi North 9.2 mph - N/A   Clear
1:15 AM 44.6 °F 39.2 °F 10.4 °F 25% 30.14 in 10.0 mi North 10.4 mph - N/A   Clear
1:35 AM 44.6 °F 39.2 °F 10.4 °F 25% 30.14 in 10.0 mi North 10.4 mph - N/A   Clear
1:55 AM 42.8 °F 37.5 °F 10.4 °F 27% 30.14 in 10.0 mi North 9.2 mph - N/A   Clear
2:15 AM 41.0 °F 34.3 °F 10.4 °F 29% 30.15 in 10.0 mi NNW 11.5 mph - N/A   Clear
2:35 AM 41.0 °F 34.3 °F 10.4 °F 29% 30.15 in 10.0 mi NNW 11.5 mph - N/A   Clear
2:55 AM 41.0 °F 34.3 °F 8.6 °F 26% 30.15 in 10.0 mi NNW 11.5 mph - N/A   Clear
3:15 AM 41.0 °F 35.2 °F 8.6 °F 26% 30.14 in 10.0 mi NNW 9.2 mph - N/A   Clear
3:35 AM 41.0 °F 35.2 °F 10.4 °F 29% 30.14 in 10.0 mi North 9.2 mph - N/A   Clear
3:55 AM 42.8 °F 37.5 °F 10.4 °F 27% 30.14 in 10.0 mi North 9.2 mph - N/A   Clear
4:15 AM 41.0 °F 35.2 °F 10.4 °F 29% 30.14 in 10.0 mi NNW 9.2 mph - N/A   Clear
4:35 AM 44.6 °F 39.7 °F 10.4 °F 25% 30.14 in 10.0 mi North 9.2 mph - N/A   Clear
4:55 AM 44.6 °F 39.7 °F 10.4 °F 25% 30.14 in 10.0 mi North 9.2 mph - N/A   Clear
5:15 AM 44.6 °F 38.8 °F 12.2 °F 27% 30.14 in 10.0 mi North 11.5 mph - N/A   Clear
5:35 AM 41.0 °F 35.2 °F 10.4 °F 29% 30.14 in 10.0 mi North 9.2 mph - N/A   Clear
5:55 AM 42.8 °F 37.0 °F 12.2 °F 29% 30.14 in 10.0 mi North 10.4 mph - N/A   Clear
6:15 AM 44.6 °F 38.8 °F 12.2 °F 27% 30.14 in 10.0 mi North 11.5 mph - N/A   Clear
6:35 AM 42.8 °F 36.6 °F 12.2 °F 29% 30.15 in 10.0 mi North 11.5 mph - N/A   Clear
6:55 AM 41.0 °F 35.8 °F 12.2 °F 31% 30.16 in 10.0 mi NNW 8.1 mph - N/A   Clear
7:15 AM 41.0 °F 34.7 °F 12.2 °F 31% 30.16 in 10.0 mi NW 10.4 mph - N/A   Clear
7:35 AM 44.6 °F 39.2 °F 14.0 °F 29% 30.16 in 10.0 mi NW 10.4 mph - N/A   Clear
7:55 AM 48.2 °F - 14.0 °F 25% 30.17 in 10.0 mi NNW 6.9 mph - N/A   Clear
8:15 AM 53.6 °F - 14.0 °F 21% 30.17 in 10.0 mi NW 10.4 mph - N/A   Clear
8:35 AM 53.6 °F - 15.8 °F 22% 30.18 in 10.0 mi NNW 9.2 mph - N/A   Clear
8:55 AM 57.2 °F - 14.0 °F 18% 30.18 in 10.0 mi NW 11.5 mph - N/A   Clear
9:15 AM 59.0 °F - 14.0 °F 17% 30.19 in 10.0 mi NW 8.1 mph - N/A   Clear
9:35 AM 62.6 °F - 14.0 °F 15% 30.20 in 10.0 mi NNW 6.9 mph - N/A   Clear
9:55 AM 62.6 °F - 14.0 °F 15% 30.20 in 10.0 mi WNW 8.1 mph - N/A   Clear
10:15 AM 64.4 °F - 15.8 °F 15% 30.21 in 10.0 mi West 9.2 mph - N/A   Clear
10:35 AM 64.4 °F - 17.6 °F 16% 30.21 in 10.0 mi West 11.5 mph - N/A   Clear
10:55 AM 64.4 °F - 21.2 °F 19% 30.21 in 10.0 mi West 10.4 mph - N/A   Clear
11:15 AM 66.2 °F - 19.4 °F 17% 30.21 in 10.0 mi WSW 12.7 mph 18.4 mph N/A   Clear
11:35 AM 68.0 °F - 19.4 °F 16% 30.21 in 10.0 mi West 10.4 mph - N/A   Clear
11:55 AM 68.0 °F - 17.6 °F 15% 30.20 in 10.0 mi West 10.4 mph 18.4 mph N/A   Clear
12:15 PM 68.0 °F - 19.4 °F 16% 30.20 in 10.0 mi West 10.4 mph 16.1 mph N/A   Clear
12:35 PM 68.0 °F - 17.6 °F 15% 30.20 in 10.0 mi WSW 11.5 mph 23.0 mph N/A   Clear
12:55 PM 69.8 °F - 17.6 °F 14% 30.19 in 10.0 mi West 12.7 mph 19.6 mph N/A   Clear
1:15 PM 68.0 °F - 17.6 °F 15% 30.18 in 10.0 mi NW 9.2 mph - N/A   Clear
1:35 PM 68.0 °F - 17.6 °F 15% 30.17 in 10.0 mi West 12.7 mph 17.3 mph N/A   Clear
1:55 PM 69.8 °F - 17.6 °F 14% 30.17 in 10.0 mi WNW 12.7 mph 17.3 mph N/A   Clear
2:15 PM 71.6 °F - 15.8 °F 12% 30.16 in 10.0 mi NW 10.4 mph 16.1 mph N/A   Clear
2:35 PM 69.8 °F - 15.8 °F 13% 30.15 in 10.0 mi West 8.1 mph - N/A   Clear
2:55 PM 69.8 °F - 15.8 °F 13% 30.14 in 10.0 mi West 10.4 mph - N/A   Clear
3:15 PM 71.6 °F - 14.0 °F 11% 30.14 in 10.0 mi West 11.5 mph 17.3 mph N/A   Clear
3:35 PM 71.6 °F - 12.2 °F 10% 30.13 in 10.0 mi WSW 8.1 mph - N/A   Clear
3:55 PM 71.6 °F - 10.4 °F 9% 30.13 in 10.0 mi NW 4.6 mph 18.4 mph N/A   Clear
4:15 PM 71.6 °F - 14.0 °F 11% 30.13 in 10.0 mi West 13.8 mph 18.4 mph N/A   Clear
4:35 PM 71.6 °F - 14.0 °F 11% 30.13 in 10.0 mi West 11.5 mph 19.6 mph N/A   Clear
4:55 PM 71.6 °F - 14.0 °F 11% 30.12 in 10.0 mi West 12.7 mph 16.1 mph N/A   Clear
5:15 PM 71.6 °F - 15.8 °F 12% 30.12 in 10.0 mi West 10.4 mph - N/A   Clear
5:35 PM 69.8 °F - 15.8 °F 13% 30.12 in 10.0 mi WNW 11.5 mph - N/A   Clear
5:55 PM 69.8 °F - 15.8 °F 13% 30.12 in 10.0 mi WNW 11.5 mph - N/A   Clear
6:15 PM 69.8 °F - 15.8 °F 13% 30.11 in 10.0 mi West 11.5 mph 19.6 mph N/A   Clear
6:35 PM 68.0 °F - 15.8 °F 13% 30.12 in 10.0 mi West 11.5 mph 16.1 mph N/A   Clear
6:55 PM 68.0 °F - 15.8 °F 13% 30.13 in 10.0 mi West 9.2 mph - N/A   Clear
7:15 PM 66.2 °F - 12.2 °F 12% 30.13 in 10.0 mi West 9.2 mph - N/A   Clear
7:35 PM 64.4 °F - 10.4 °F 12% 30.14 in 10.0 mi West 8.1 mph - N/A   Clear
7:55 PM 64.4 °F - 10.4 °F 12% 30.14 in 10.0 mi West 6.9 mph - N/A   Clear
8:15 PM 55.4 °F - 8.6 °F 15% 30.15 in 10.0 mi WNW 4.6 mph - N/A   Clear
8:35 PM 53.6 °F - 8.6 °F 16% 30.15 in 10.0 mi NW 5.8 mph - N/A   Clear
8:55 PM 53.6 °F - 8.6 °F 16% 30.15 in 10.0 mi NNW 3.5 mph - N/A   Clear
9:15 PM 50.0 °F - 8.6 °F 19% 30.15 in 10.0 mi NNW 5.8 mph - N/A   Clear
9:35 PM 48.2 °F - 8.6 °F 20% 30.16 in 10.0 mi NNW 6.9 mph - N/A   Clear
9:55 PM 48.2 °F - 8.6 °F 20% 30.17 in 10.0 mi North 9.2 mph - N/A   Clear
10:15 PM 48.2 °F - 10.4 °F 22% 30.17 in 10.0 mi NNW 8.1 mph - N/A   Clear
10:35 PM 46.4 °F 41.9 °F 10.4 °F 23% 30.17 in 10.0 mi NNW 9.2 mph - N/A   Clear
10:55 PM 48.2 °F - 12.2 °F 24% 30.17 in 10.0 mi NNW 10.4 mph - N/A   Clear
11:15 PM 51.8 °F - 14.0 °F 22% 30.18 in 10.0 mi North 11.5 mph - N/A   Clear
11:35 PM 50.0 °F - 14.0 °F 24% 30.18 in 10.0 mi North 10.4 mph - N/A   Clear
11:55 PM 50.0 °F - 14.0 °F 24% 30.18 in 10.0 mi North 9.2 mph - N/A   Clear